createdAt,value
2023-02-12T00:00:43.695Z,1032.26
2023-02-12T00:01:43.715Z,1032.27
2023-02-12T00:02:43.709Z,1032.26
2023-02-12T00:03:43.799Z,1032.28
2023-02-12T00:04:43.662Z,1032.26
2023-02-12T00:05:43.739Z,1032.25
2023-02-12T00:06:43.627Z,1032.24
2023-02-12T00:07:43.640Z,1032.29
2023-02-12T00:08:43.644Z,1032.33
2023-02-12T00:09:43.704Z,1032.34
2023-02-12T00:10:43.583Z,1032.24
2023-02-12T00:11:43.684Z,1032.32
2023-02-12T00:12:43.560Z,1032.28
2023-02-12T00:13:43.577Z,1032.32
2023-02-12T00:14:43.549Z,1032.30
2023-02-12T00:15:43.629Z,1032.24
2023-02-12T00:16:43.522Z,1032.21
2023-02-12T00:17:43.609Z,1032.23
2023-02-12T00:18:43.508Z,1032.29
2023-02-12T00:19:43.573Z,1032.32
2023-02-12T00:20:43.490Z,1032.25
2023-02-12T00:21:43.534Z,1032.25
2023-02-12T00:22:43.459Z,1032.24
2023-02-12T00:23:44.472Z,1032.26
2023-02-12T00:24:43.446Z,1032.27
2023-02-12T00:25:43.460Z,1032.29
2023-02-12T00:26:43.418Z,1032.31
2023-02-12T00:27:43.473Z,1032.30
2023-02-12T00:28:43.382Z,1032.36
2023-02-12T00:29:43.472Z,1032.29
2023-02-12T00:30:43.400Z,1032.37
2023-02-12T00:31:43.520Z,1032.35
2023-02-12T00:32:43.415Z,1032.35
2023-02-12T00:33:43.428Z,1032.37
2023-02-12T00:34:43.467Z,1032.39
2023-02-12T00:35:43.341Z,1032.38
2023-02-12T00:36:43.294Z,1032.37
2023-02-12T00:37:43.340Z,1032.41
2023-02-12T00:38:43.279Z,1032.39
2023-02-12T00:39:43.302Z,1032.37
2023-02-12T00:40:43.254Z,1032.40
2023-02-12T00:41:43.264Z,1032.44
2023-02-12T00:42:43.225Z,1032.35
2023-02-12T00:43:43.285Z,1032.40
2023-02-12T00:44:43.226Z,1032.39
2023-02-12T00:45:43.289Z,1032.37
2023-02-12T00:46:43.287Z,1032.31
2023-02-12T00:47:43.201Z,1032.34
2023-02-12T00:48:43.177Z,1032.31
2023-02-12T00:49:43.271Z,1032.34
2023-02-12T00:50:43.154Z,1032.32
2023-02-12T00:51:43.232Z,1032.35
2023-02-12T00:52:43.114Z,1032.31
2023-02-12T00:53:43.153Z,1032.28
2023-02-12T00:54:43.112Z,1032.35
2023-02-12T00:55:43.158Z,1032.36
2023-02-12T00:56:43.082Z,1032.36
2023-02-12T00:57:43.176Z,1032.36
2023-02-12T00:58:43.055Z,1032.35
2023-02-12T00:59:43.174Z,1032.39
2023-02-12T01:00:43.026Z,1032.37
2023-02-12T01:01:45.186Z,1032.35
2023-02-12T01:02:43.009Z,1032.35
2023-02-12T01:03:44.033Z,1032.39
2023-02-12T01:04:43.032Z,1032.40
2023-02-12T01:05:43.020Z,1032.35
2023-02-12T01:06:42.992Z,1032.42
2023-02-12T01:07:43.032Z,1032.42
2023-02-12T01:08:42.963Z,1032.35
2023-02-12T01:09:43.002Z,1032.39
2023-02-12T01:10:42.928Z,1032.37
2023-02-12T01:11:42.962Z,1032.44
2023-02-12T01:12:42.899Z,1032.45
2023-02-12T01:13:42.992Z,1032.44
2023-02-12T01:14:42.892Z,1032.49
2023-02-12T01:15:42.936Z,1032.53
2023-02-12T01:16:42.860Z,1032.53
2023-02-12T01:17:42.915Z,1032.54
2023-02-12T01:18:42.839Z,1032.55
2023-02-12T01:19:42.866Z,1032.53
2023-02-12T01:20:42.817Z,1032.55
2023-02-12T01:21:42.845Z,1032.52
2023-02-12T01:22:42.805Z,1032.56
2023-02-12T01:23:42.840Z,1032.57
2023-02-12T01:24:42.792Z,1032.56
2023-02-12T01:25:42.856Z,1032.55
2023-02-12T01:26:42.753Z,1032.60
2023-02-12T01:27:42.767Z,1032.56
2023-02-12T01:28:42.727Z,1032.55
2023-02-12T01:29:42.834Z,1032.60
2023-02-12T01:30:42.773Z,1032.55
2023-02-12T01:31:43.073Z,1032.58
2023-02-12T01:32:42.681Z,1032.60
2023-02-12T01:33:42.706Z,1032.57
2023-02-12T01:34:42.673Z,1032.56
2023-02-12T01:35:42.720Z,1032.57
2023-02-12T01:36:42.637Z,1032.55
2023-02-12T01:37:42.735Z,1032.56
2023-02-12T01:38:42.638Z,1032.53
2023-02-12T01:39:42.699Z,1032.53
2023-02-12T01:40:42.600Z,1032.51
2023-02-12T01:41:42.666Z,1032.50
2023-02-12T01:42:42.643Z,1032.52
2023-02-12T01:43:42.778Z,1032.54
2023-02-12T01:44:42.621Z,1032.53
2023-02-12T01:46:05.665Z,1032.57
2023-02-12T01:46:42.577Z,1032.54
2023-02-12T01:47:42.601Z,1032.53
2023-02-12T01:48:42.508Z,1032.59
2023-02-12T01:49:42.586Z,1032.60
2023-02-12T01:50:42.490Z,1032.59
2023-02-12T01:51:42.525Z,1032.63
2023-02-12T01:52:42.465Z,1032.55
2023-02-12T01:53:42.538Z,1032.58
2023-02-12T01:54:42.485Z,1032.60
2023-02-12T01:55:42.446Z,1032.57
2023-02-12T01:56:42.421Z,1032.58
2023-02-12T01:57:43.202Z,1032.59
2023-02-12T01:58:42.405Z,1032.59
2023-02-12T01:59:42.427Z,1032.55
2023-02-12T02:00:42.373Z,1032.58
2023-02-12T02:01:42.466Z,1032.57
2023-02-12T02:02:42.355Z,1032.57
2023-02-12T02:03:42.406Z,1032.52
2023-02-12T02:04:42.353Z,1032.52
2023-02-12T02:05:42.416Z,1032.51
2023-02-12T02:06:42.313Z,1032.49
2023-02-12T02:07:42.326Z,1032.49
2023-02-12T02:08:42.286Z,1032.47
2023-02-12T02:09:42.407Z,1032.46
2023-02-12T02:10:42.286Z,1032.45
2023-02-12T02:11:42.351Z,1032.43
2023-02-12T02:12:42.254Z,1032.47
2023-02-12T02:13:42.263Z,1032.41
2023-02-12T02:14:42.231Z,1032.46
2023-02-12T02:15:42.360Z,1032.42
2023-02-12T02:16:42.197Z,1032.42
2023-02-12T02:17:42.292Z,1032.44
2023-02-12T02:18:42.176Z,1032.44
2023-02-12T02:19:42.203Z,1032.39
2023-02-12T02:20:42.168Z,1032.44
2023-02-12T02:21:42.218Z,1032.39
2023-02-12T02:22:42.239Z,1032.40
2023-02-12T02:23:42.234Z,1032.38
2023-02-12T02:24:42.111Z,1032.37
2023-02-12T02:25:43.226Z,1032.40
2023-02-12T02:26:42.104Z,1032.38
2023-02-12T02:27:43.183Z,1032.38
2023-02-12T02:28:42.063Z,1032.32
2023-02-12T02:29:44.111Z,1032.33
2023-02-12T02:30:42.101Z,1032.39
2023-02-12T02:31:42.124Z,1032.35
2023-02-12T02:32:42.018Z,1032.30
2023-02-12T02:33:43.117Z,1032.33
2023-02-12T02:34:41.998Z,1032.39
2023-02-12T02:35:42.053Z,1032.35
2023-02-12T02:36:54.463Z,1032.36
2023-02-12T02:37:42.957Z,1032.32
2023-02-12T02:38:42.023Z,1032.30
2023-02-12T02:39:41.935Z,1032.34
2023-02-12T02:40:41.987Z,1032.30
2023-02-12T02:41:41.917Z,1032.28
2023-02-12T02:42:41.970Z,1032.30
2023-02-12T02:43:41.897Z,1032.36
2023-02-12T02:44:41.962Z,1032.33
2023-02-12T02:45:41.891Z,1032.35
2023-02-12T02:46:41.932Z,1032.35
2023-02-12T02:47:41.923Z,1032.36
2023-02-12T02:48:41.897Z,1032.29
2023-02-12T02:49:41.824Z,1032.30
2023-02-12T02:50:41.859Z,1032.32
2023-02-12T02:51:41.813Z,1032.33
2023-02-12T02:52:41.814Z,1032.29
2023-02-12T02:53:41.781Z,1032.31
2023-02-12T02:54:41.826Z,1032.27
2023-02-12T02:55:41.785Z,1032.30
2023-02-12T02:56:41.848Z,1032.26
2023-02-12T02:57:41.759Z,1032.22
2023-02-12T02:58:41.774Z,1032.28
2023-02-12T02:59:41.719Z,1032.24
2023-02-12T03:00:41.840Z,1032.26
2023-02-12T03:01:41.694Z,1032.29
2023-02-12T03:02:41.797Z,1032.28
2023-02-12T03:03:41.678Z,1032.34
2023-02-12T03:04:41.693Z,1032.36
2023-02-12T03:05:41.676Z,1032.30
2023-02-12T03:06:41.705Z,1032.31
2023-02-12T03:07:41.617Z,1032.34
2023-02-12T03:08:41.717Z,1032.34
2023-02-12T03:09:41.606Z,1032.39
2023-02-12T03:10:41.685Z,1032.35
2023-02-12T03:11:41.586Z,1032.35
2023-02-12T03:12:42.673Z,1032.36
2023-02-12T03:13:41.589Z,1032.35
2023-02-12T03:14:41.680Z,1032.36
2023-02-12T03:15:41.559Z,1032.39
2023-02-12T03:16:42.762Z,1032.35
2023-02-12T03:17:41.516Z,1032.37
2023-02-12T03:18:43.530Z,1032.34
2023-02-12T03:19:41.498Z,1032.37
2023-02-12T03:20:41.550Z,1032.39
2023-02-12T03:21:41.480Z,1032.35
2023-02-12T03:22:41.508Z,1032.40
2023-02-12T03:23:41.454Z,1032.38
2023-02-12T03:24:41.525Z,1032.37
2023-02-12T03:25:41.456Z,1032.42
2023-02-12T03:26:41.539Z,1032.40
2023-02-12T03:27:41.430Z,1032.38
2023-02-12T03:28:41.490Z,1032.42
2023-02-12T03:29:41.397Z,1032.43
2023-02-12T03:30:41.475Z,1032.42
2023-02-12T03:31:41.506Z,1032.46
2023-02-12T03:32:41.375Z,1032.45
2023-02-12T03:33:41.349Z,1032.41
2023-02-12T03:34:41.394Z,1032.43
2023-02-12T03:35:41.345Z,1032.48
2023-02-12T03:36:41.406Z,1032.42
2023-02-12T03:37:41.306Z,1032.44
2023-02-12T03:38:41.335Z,1032.43
2023-02-12T03:39:41.282Z,1032.49
2023-02-12T03:40:41.385Z,1032.50
2023-02-12T03:41:41.267Z,1032.45
2023-02-12T03:42:41.348Z,1032.47
2023-02-12T03:43:41.247Z,1032.44
2023-02-12T03:44:41.255Z,1032.48
2023-02-12T03:45:41.314Z,1032.42
2023-02-12T03:46:41.293Z,1032.47
2023-02-12T03:47:41.317Z,1032.43
2023-02-12T03:48:41.283Z,1032.43
2023-02-12T03:49:41.186Z,1032.41
2023-02-12T03:50:41.259Z,1032.42
2023-02-12T03:51:41.158Z,1032.44
2023-02-12T03:52:41.208Z,1032.38
2023-02-12T03:53:41.135Z,1032.49
2023-02-12T03:54:41.224Z,1032.47
2023-02-12T03:55:41.128Z,1032.44
2023-02-12T03:56:41.130Z,1032.44
2023-02-12T03:57:41.092Z,1032.44
2023-02-12T03:58:42.165Z,1032.41
2023-02-12T03:59:41.070Z,1032.44
2023-02-12T04:00:41.113Z,1032.38
2023-02-12T04:01:41.158Z,1032.40
2023-02-12T04:03:02.081Z,1032.42
2023-02-12T04:03:41.023Z,1032.44
2023-02-12T04:04:43.059Z,1032.44
2023-02-12T04:05:41.019Z,1032.41
2023-02-12T04:06:42.037Z,1032.42
2023-02-12T04:07:40.987Z,1032.43
2023-02-12T04:08:41.004Z,1032.47
2023-02-12T04:09:40.957Z,1032.45
2023-02-12T04:10:41.069Z,1032.42
2023-02-12T04:11:40.942Z,1032.44
2023-02-12T04:12:41.038Z,1032.53
2023-02-12T04:13:40.915Z,1032.46
2023-02-12T04:14:40.943Z,1032.49
2023-02-12T04:15:40.920Z,1032.49
2023-02-12T04:16:41.032Z,1032.55
2023-02-12T04:17:40.871Z,1032.56
2023-02-12T04:18:40.886Z,1032.53
2023-02-12T04:19:40.854Z,1032.58
2023-02-12T04:20:40.933Z,1032.59
2023-02-12T04:21:40.825Z,1032.54
2023-02-12T04:22:40.899Z,1032.56
2023-02-12T04:23:40.808Z,1032.55
2023-02-12T04:24:40.806Z,1032.54
2023-02-12T04:25:40.798Z,1032.52
2023-02-12T04:26:40.824Z,1032.58
2023-02-12T04:27:40.761Z,1032.58
2023-02-12T04:28:40.898Z,1032.57
2023-02-12T04:29:40.738Z,1032.60
2023-02-12T04:30:40.866Z,1032.63
2023-02-12T04:31:40.901Z,1032.63
2023-02-12T04:32:40.761Z,1032.70
2023-02-12T04:33:40.721Z,1032.72
2023-02-12T04:34:40.795Z,1032.71
2023-02-12T04:35:40.689Z,1032.68
2023-02-12T04:36:40.750Z,1032.70
2023-02-12T04:37:40.664Z,1032.73
2023-02-12T04:38:40.712Z,1032.74
2023-02-12T04:39:40.634Z,1032.78
2023-02-12T04:40:40.720Z,1032.80
2023-02-12T04:41:40.637Z,1032.76
2023-02-12T04:42:40.628Z,1032.72
2023-02-12T04:43:40.592Z,1032.76
2023-02-12T04:44:40.648Z,1032.75
2023-02-12T04:45:40.631Z,1032.79
2023-02-12T04:46:40.614Z,1032.75
2023-02-12T04:47:40.556Z,1032.76
2023-02-12T04:48:40.573Z,1032.73
2023-02-12T04:49:40.534Z,1032.78
2023-02-12T04:51:01.653Z,1032.75
2023-02-12T04:51:40.524Z,1032.73
2023-02-12T04:52:41.523Z,1032.76
2023-02-12T04:53:40.489Z,1032.75
2023-02-12T04:54:40.511Z,1032.73
2023-02-12T04:55:40.465Z,1032.73
2023-02-12T04:56:40.576Z,1032.75
2023-02-12T04:57:40.444Z,1032.72
2023-02-12T04:58:40.538Z,1032.75
2023-02-12T04:59:40.430Z,1032.72
2023-02-12T05:00:40.456Z,1032.74
2023-02-12T05:01:40.518Z,1032.71
2023-02-12T05:02:40.507Z,1032.71
2023-02-12T05:03:40.381Z,1032.75
2023-02-12T05:04:40.528Z,1032.74
2023-02-12T05:05:40.372Z,1032.71
2023-02-12T05:06:40.454Z,1032.72
2023-02-12T05:07:40.347Z,1032.67
2023-02-12T05:08:40.423Z,1032.73
2023-02-12T05:09:40.327Z,1032.72
2023-02-12T05:10:40.324Z,1032.70
2023-02-12T05:11:40.314Z,1032.75
2023-02-12T05:12:40.330Z,1032.70
2023-02-12T05:13:40.269Z,1032.70
2023-02-12T05:14:40.349Z,1032.69
2023-02-12T05:15:40.320Z,1032.72
2023-02-12T05:16:40.323Z,1032.67
2023-02-12T05:17:40.225Z,1032.71
2023-02-12T05:18:40.269Z,1032.74
2023-02-12T05:19:40.200Z,1032.74
2023-02-12T05:20:40.281Z,1032.74
2023-02-12T05:21:40.210Z,1032.74
2023-02-12T05:22:40.312Z,1032.74
2023-02-12T05:23:40.164Z,1032.72
2023-02-12T05:24:40.206Z,1032.68
2023-02-12T05:25:40.136Z,1032.76
2023-02-12T05:26:40.174Z,1032.72
2023-02-12T05:27:40.123Z,1032.76
2023-02-12T05:28:42.182Z,1032.72
2023-02-12T05:29:40.099Z,1032.71
2023-02-12T05:30:41.205Z,1032.73
2023-02-12T05:31:40.203Z,1032.74
2023-02-12T05:32:40.158Z,1032.70
2023-02-12T05:33:40.054Z,1032.67
2023-02-12T05:35:01.067Z,1032.68
2023-02-12T05:35:40.022Z,1032.71
2023-02-12T05:36:40.153Z,1032.66
2023-02-12T05:37:40.018Z,1032.67
2023-02-12T05:38:40.116Z,1032.79
2023-02-12T05:39:39.980Z,1032.77
2023-02-12T05:40:40.012Z,1032.74
2023-02-12T05:41:39.976Z,1032.75
2023-02-12T05:42:40.047Z,1032.77
2023-02-12T05:43:39.933Z,1032.81
2023-02-12T05:44:40.033Z,1032.80
2023-02-12T05:45:39.916Z,1032.85
2023-02-12T05:46:40.131Z,1032.83
2023-02-12T05:47:39.894Z,1032.80
2023-02-12T05:48:39.979Z,1032.77
2023-02-12T05:49:39.870Z,1032.80
2023-02-12T05:50:39.972Z,1032.72
2023-02-12T05:51:39.879Z,1032.81
2023-02-12T05:52:39.890Z,1032.84
2023-02-12T05:53:39.849Z,1032.84
2023-02-12T05:54:39.922Z,1032.80
2023-02-12T05:55:39.801Z,1032.90
2023-02-12T05:56:39.857Z,1032.85
2023-02-12T05:57:39.778Z,1032.86
2023-02-12T05:58:39.828Z,1032.90
2023-02-12T05:59:39.761Z,1032.86
2023-02-12T06:00:39.834Z,1032.87
2023-02-12T06:01:39.752Z,1032.87
2023-02-12T06:02:39.773Z,1032.89
2023-02-12T06:03:39.856Z,1032.88
2023-02-12T06:04:39.760Z,1032.92
2023-02-12T06:05:39.699Z,1032.87
2023-02-12T06:06:39.725Z,1032.88
2023-02-12T06:07:39.677Z,1032.89
2023-02-12T06:08:39.687Z,1032.89
2023-02-12T06:09:39.648Z,1032.88
2023-02-12T06:10:39.719Z,1032.89
2023-02-12T06:11:39.647Z,1032.87
2023-02-12T06:12:39.712Z,1032.93
2023-02-12T06:13:39.614Z,1032.92
2023-02-12T06:14:41.673Z,1032.96
2023-02-12T06:15:39.582Z,1032.93
2023-02-12T06:16:39.783Z,1032.88
2023-02-12T06:17:39.563Z,1032.91
2023-02-12T06:19:02.607Z,1032.92
2023-02-12T06:19:39.557Z,1032.94
2023-02-12T06:21:00.554Z,1032.95
2023-02-12T06:21:39.538Z,1032.95
2023-02-12T06:22:41.525Z,1033.01
2023-02-12T06:23:39.491Z,1032.97
2023-02-12T06:24:40.512Z,1032.96
2023-02-12T06:25:39.472Z,1032.97
2023-02-12T06:26:39.577Z,1032.99
2023-02-12T06:27:39.465Z,1033.03
2023-02-12T06:28:39.634Z,1033.04
2023-02-12T06:29:39.431Z,1033.04
2023-02-12T06:30:39.533Z,1033.01
2023-02-12T06:31:39.559Z,1033.05
2023-02-12T06:32:39.502Z,1033.05
2023-02-12T06:33:39.390Z,1033.05
2023-02-12T06:34:39.459Z,1033.04
2023-02-12T06:35:39.365Z,1033.06
2023-02-12T06:36:39.476Z,1033.08
2023-02-12T06:37:39.362Z,1033.09
2023-02-12T06:38:39.389Z,1033.13
2023-02-12T06:39:39.327Z,1033.20
2023-02-12T06:40:39.401Z,1033.16
2023-02-12T06:41:39.301Z,1033.10
2023-02-12T06:42:39.391Z,1033.17
2023-02-12T06:43:39.285Z,1033.12
2023-02-12T06:44:39.327Z,1033.20
2023-02-12T06:45:39.269Z,1033.13
2023-02-12T06:46:39.484Z,1033.15
2023-02-12T06:47:39.272Z,1033.12
2023-02-12T06:48:39.268Z,1033.14
2023-02-12T06:49:39.223Z,1033.15
2023-02-12T06:50:39.273Z,1033.17
2023-02-12T06:51:39.196Z,1033.18
2023-02-12T06:52:39.287Z,1033.20
2023-02-12T06:53:39.182Z,1033.17
2023-02-12T06:54:39.192Z,1033.21
2023-02-12T06:55:39.153Z,1033.22
2023-02-12T06:56:39.214Z,1033.22
2023-02-12T06:57:39.157Z,1033.24
2023-02-12T06:58:39.244Z,1033.25
2023-02-12T06:59:39.110Z,1033.27
2023-02-12T07:00:40.209Z,1033.25
2023-02-12T07:01:39.088Z,1033.25
2023-02-12T07:02:39.312Z,1033.30
2023-02-12T07:03:39.114Z,1033.30
2023-02-12T07:05:48.736Z,1033.28
2023-02-12T07:06:48.641Z,1033.30
2023-02-12T07:07:48.646Z,1033.32
2023-02-12T07:08:48.608Z,1033.32
2023-02-12T07:09:48.715Z,1033.30
2023-02-12T07:10:48.592Z,1033.35
2023-02-12T07:11:48.625Z,1033.40
2023-02-12T07:12:48.580Z,1033.38
2023-02-12T07:13:48.656Z,1033.39
2023-02-12T07:14:48.553Z,1033.44
2023-02-12T07:15:48.550Z,1033.41
2023-02-12T07:16:48.547Z,1033.42
2023-02-12T07:17:48.617Z,1033.46
2023-02-12T07:18:48.501Z,1033.43
2023-02-12T07:19:50.524Z,1033.42
2023-02-12T07:20:48.495Z,1033.44
2023-02-12T07:21:50.537Z,1033.48
2023-02-12T07:22:48.489Z,1033.41
2023-02-12T07:24:10.519Z,1033.46
2023-02-12T07:24:48.430Z,1033.40
2023-02-12T07:25:49.472Z,1033.43
2023-02-12T07:26:48.422Z,1033.43
2023-02-12T07:27:48.484Z,1033.44
2023-02-12T07:28:48.399Z,1033.38
2023-02-12T07:29:48.463Z,1033.42
2023-02-12T07:30:48.385Z,1033.43
2023-02-12T07:31:48.527Z,1033.48
2023-02-12T07:32:48.366Z,1033.47
2023-02-12T07:33:48.381Z,1033.50
2023-02-12T07:34:48.319Z,1033.47
2023-02-12T07:35:48.379Z,1033.52
2023-02-12T07:36:48.291Z,1033.53
2023-02-12T07:37:48.348Z,1033.53
2023-02-12T07:38:48.296Z,1033.48
2023-02-12T07:39:48.307Z,1033.53
2023-02-12T07:40:48.261Z,1033.56
2023-02-12T07:41:48.318Z,1033.50
2023-02-12T07:42:48.257Z,1033.56
2023-02-12T07:43:48.335Z,1033.53
2023-02-12T07:44:48.227Z,1033.54
2023-02-12T07:45:48.343Z,1033.55
2023-02-12T07:46:48.851Z,1033.59
2023-02-12T07:47:48.216Z,1033.58
2023-02-12T07:48:48.165Z,1033.61
2023-02-12T07:49:48.171Z,1033.60
2023-02-12T07:50:48.142Z,1033.63
2023-02-12T07:51:48.368Z,1033.65
2023-02-12T07:52:48.147Z,1033.61
2023-02-12T07:53:48.205Z,1033.67
2023-02-12T07:54:48.117Z,1033.68
2023-02-12T07:55:48.265Z,1033.67
2023-02-12T07:56:48.101Z,1033.69
2023-02-12T07:57:48.182Z,1033.73
2023-02-12T07:58:48.070Z,1033.77
2023-02-12T07:59:48.139Z,1033.77
2023-02-12T08:00:48.041Z,1033.76
2023-02-12T08:01:48.069Z,1033.76
2023-02-12T08:02:48.055Z,1033.74
2023-02-12T08:03:50.125Z,1033.78
2023-02-12T08:04:48.063Z,1033.73
2023-02-12T08:06:57.561Z,1033.78
2023-02-12T08:07:57.471Z,1033.74
2023-02-12T08:08:57.520Z,1033.81
2023-02-12T08:09:57.429Z,1033.80
2023-02-12T08:10:57.537Z,1033.76
2023-02-12T08:11:57.409Z,1033.79
2023-02-12T08:12:57.499Z,1033.81
2023-02-12T08:13:57.384Z,1033.84
2023-02-12T08:14:59.404Z,1033.84
2023-02-12T08:15:57.701Z,1033.86
2023-02-12T08:16:57.508Z,1033.85
2023-02-12T08:17:57.356Z,1033.86
2023-02-12T08:19:07.217Z,1033.84
2023-02-12T08:19:58.322Z,1033.82
2023-02-12T08:20:57.398Z,1033.85
2023-02-12T08:21:57.304Z,1033.83
2023-02-12T08:22:57.359Z,1033.84
2023-02-12T08:23:57.275Z,1033.85
2023-02-12T08:24:57.326Z,1033.83
2023-02-12T08:25:57.595Z,1033.84
2023-02-12T08:26:57.342Z,1033.84
2023-02-12T08:27:57.420Z,1033.89
2023-02-12T08:28:57.251Z,1033.86
2023-02-12T08:29:57.214Z,1033.93
2023-02-12T08:30:57.307Z,1033.91
2023-02-12T08:31:57.277Z,1033.95
2023-02-12T08:32:57.246Z,1033.96
2023-02-12T08:33:57.172Z,1033.94
2023-02-12T08:34:57.189Z,1033.96
2023-02-12T08:35:59.745Z,1033.97
2023-02-12T08:36:57.207Z,1033.97
2023-02-12T08:37:57.124Z,1034.02
2023-02-12T08:38:57.170Z,1034.01
2023-02-12T08:39:57.103Z,1034.07
2023-02-12T08:40:57.185Z,1034.05
2023-02-12T08:41:57.103Z,1034.01
2023-02-12T08:42:57.145Z,1034.06
2023-02-12T08:43:57.082Z,1034.05
2023-02-12T08:44:57.158Z,1034.06
2023-02-12T08:45:57.494Z,1034.08
2023-02-12T08:46:57.082Z,1034.07
2023-02-12T08:47:57.017Z,1034.08
2023-02-12T08:48:58.074Z,1034.05
2023-02-12T08:49:56.994Z,1034.09
2023-02-12T08:50:57.096Z,1034.10
2023-02-12T08:51:57.035Z,1034.06
2023-02-12T08:52:57.013Z,1034.08
2023-02-12T08:53:56.976Z,1034.04
2023-02-12T08:54:57.014Z,1034.07
2023-02-12T08:55:57.282Z,1034.08
2023-02-12T08:56:57.034Z,1034.08
2023-02-12T08:57:56.904Z,1034.09
2023-02-12T08:58:57.005Z,1034.16
2023-02-12T08:59:56.894Z,1034.15
2023-02-12T09:00:57.056Z,1034.12
2023-02-12T09:01:56.906Z,1034.14
2023-02-12T09:02:56.867Z,1034.18
2023-02-12T09:03:56.876Z,1034.15
2023-02-12T09:04:56.901Z,1034.14
2023-02-12T09:05:57.124Z,1034.14
2023-02-12T09:06:56.896Z,1034.16
2023-02-12T09:07:56.802Z,1034.19
2023-02-12T09:08:56.887Z,1034.20
2023-02-12T09:09:56.769Z,1034.22
2023-02-12T09:10:56.818Z,1034.20
2023-02-12T09:11:56.747Z,1034.19
2023-02-12T09:12:56.833Z,1034.25
2023-02-12T09:13:57.552Z,1034.27
2023-02-12T09:14:56.748Z,1034.24
2023-02-12T09:15:57.050Z,1034.28
2023-02-12T09:16:56.882Z,1034.24
2023-02-12T09:17:56.692Z,1034.28
2023-02-12T09:18:56.738Z,1034.28
2023-02-12T09:19:56.663Z,1034.32
2023-02-12T09:20:56.707Z,1034.28
2023-02-12T09:21:57.111Z,1034.35
2023-02-12T09:22:56.809Z,1034.28
2023-02-12T09:23:56.657Z,1034.31
2023-02-12T09:24:56.714Z,1034.40
2023-02-12T09:25:56.895Z,1034.37
2023-02-12T09:26:56.630Z,1034.40
2023-02-12T09:27:56.584Z,1034.38
2023-02-12T09:28:56.696Z,1034.37
2023-02-12T09:29:56.587Z,1034.40
2023-02-12T09:30:56.822Z,1034.38
2023-02-12T09:31:56.745Z,1034.39
2023-02-12T09:32:56.592Z,1034.45
2023-02-12T09:33:56.545Z,1034.41
2023-02-12T09:34:56.583Z,1034.40
2023-02-12T09:35:56.854Z,1034.40
2023-02-12T09:36:56.640Z,1034.42
2023-02-12T09:37:56.481Z,1034.41
2023-02-12T09:38:56.573Z,1034.39
2023-02-12T09:39:56.457Z,1034.40
2023-02-12T09:40:56.522Z,1034.41
2023-02-12T09:41:56.427Z,1034.43
2023-02-12T09:42:56.436Z,1034.43
2023-02-12T09:43:56.429Z,1034.45
2023-02-12T09:44:57.474Z,1034.47
2023-02-12T09:45:56.759Z,1034.49
2023-02-12T09:46:57.485Z,1034.52
2023-02-12T09:47:56.369Z,1034.55
2023-02-12T09:48:56.430Z,1034.52
2023-02-12T09:49:56.346Z,1034.56
2023-02-12T09:50:56.391Z,1034.60
2023-02-12T09:51:56.343Z,1034.61
2023-02-12T09:52:56.421Z,1034.56
2023-02-12T09:53:56.334Z,1034.54
2023-02-12T09:54:56.333Z,1034.62
2023-02-12T09:55:56.713Z,1034.63
2023-02-12T09:56:56.329Z,1034.60
2023-02-12T09:57:56.259Z,1034.62
2023-02-12T09:58:56.294Z,1034.66
2023-02-12T09:59:56.249Z,1034.66
2023-02-12T10:00:56.255Z,1034.62
2023-02-12T10:01:56.222Z,1034.63
2023-02-12T10:02:56.273Z,1034.63
2023-02-12T10:03:56.287Z,1034.65
2023-02-12T10:05:01.679Z,1034.65
2023-02-12T10:05:57.545Z,1034.64
2023-02-12T10:06:56.196Z,1034.67
2023-02-12T10:07:56.160Z,1034.67
2023-02-12T10:08:57.204Z,1034.59
2023-02-12T10:09:56.145Z,1034.61
2023-02-12T10:10:56.225Z,1034.61
2023-02-12T10:11:56.120Z,1034.65
2023-02-12T10:12:56.139Z,1034.69
2023-02-12T10:13:56.116Z,1034.69
2023-02-12T10:14:56.153Z,1034.65
2023-02-12T10:15:56.434Z,1034.64
2023-02-12T10:16:56.162Z,1034.65
2023-02-12T10:17:56.057Z,1034.64
2023-02-12T10:18:56.127Z,1034.64
2023-02-12T10:19:56.029Z,1034.71
2023-02-12T10:20:56.454Z,1034.67
2023-02-12T10:21:56.014Z,1034.65
2023-02-12T10:23:57.006Z,1034.67
2023-02-12T10:24:56.047Z,1034.68
2023-02-12T10:25:56.623Z,1034.66
2023-02-12T10:26:56.030Z,1034.67
2023-02-12T10:27:55.960Z,1034.67
2023-02-12T10:28:55.991Z,1034.72
2023-02-12T10:29:55.922Z,1034.71
2023-02-12T10:30:56.067Z,1034.72
2023-02-12T10:32:57.918Z,1034.73
2023-02-12T10:33:55.884Z,1034.70
2023-02-12T10:34:55.880Z,1034.69
2023-02-12T10:35:56.184Z,1034.67
2023-02-12T10:36:55.898Z,1034.65
2023-02-12T10:37:55.824Z,1034.61
2023-02-12T10:38:55.856Z,1034.64
2023-02-12T10:39:55.813Z,1034.64
2023-02-12T10:40:55.838Z,1034.59
2023-02-12T10:41:55.782Z,1034.55
2023-02-12T10:42:55.828Z,1034.61
2023-02-12T10:43:56.553Z,1034.61
2023-02-12T10:44:55.840Z,1034.63
2023-02-12T10:45:56.136Z,1034.66
2023-02-12T10:46:55.753Z,1034.62
2023-02-12T10:47:55.709Z,1034.62
2023-02-12T10:48:55.818Z,1034.59
2023-02-12T10:49:55.686Z,1034.62
2023-02-12T10:50:55.780Z,1034.60
2023-02-12T10:51:55.668Z,1034.61
2023-02-12T10:52:55.695Z,1034.67
2023-02-12T10:53:55.663Z,1034.67
2023-02-12T10:54:55.705Z,1034.65
2023-02-12T10:55:55.878Z,1034.68
2023-02-12T10:56:55.735Z,1034.63
2023-02-12T10:57:55.602Z,1034.64
2023-02-12T10:58:55.702Z,1034.66
2023-02-12T10:59:55.580Z,1034.60
2023-02-12T11:00:55.644Z,1034.63
2023-02-12T11:01:55.614Z,1034.61
2023-02-12T11:02:55.657Z,1034.62
2023-02-12T11:03:55.556Z,1034.57
2023-02-12T11:04:55.632Z,1034.62
2023-02-12T11:05:55.843Z,1034.63
2023-02-12T11:06:55.583Z,1034.63
2023-02-12T11:07:55.542Z,1034.55
2023-02-12T11:08:55.547Z,1034.55
2023-02-12T11:09:55.477Z,1034.52
2023-02-12T11:10:55.526Z,1034.55
2023-02-12T11:11:55.448Z,1034.46
2023-02-12T11:12:55.539Z,1034.48
2023-02-12T11:13:55.424Z,1034.48
2023-02-12T11:14:55.512Z,1034.49
2023-02-12T11:15:55.458Z,1034.40
2023-02-12T11:17:16.458Z,1034.50
2023-02-12T11:17:55.381Z,1034.62
2023-02-12T11:18:55.460Z,1034.42
2023-02-12T11:19:55.380Z,1034.39
2023-02-12T11:20:55.373Z,1034.38
2023-02-12T11:21:55.340Z,1034.38
2023-02-12T11:22:55.388Z,1034.43
2023-02-12T11:23:55.310Z,1034.35
2023-02-12T11:24:55.355Z,1034.37
2023-02-12T11:25:55.618Z,1034.38
2023-02-12T11:26:55.312Z,1034.42
2023-02-12T11:27:55.291Z,1034.54
2023-02-12T11:28:55.488Z,1034.35
2023-02-12T11:29:55.271Z,1034.32
2023-02-12T11:30:55.531Z,1034.34
2023-02-12T11:31:55.346Z,1034.27
2023-02-12T11:32:55.246Z,1034.28
2023-02-12T11:33:55.191Z,1034.27
2023-02-12T11:34:55.330Z,1034.31
2023-02-12T11:35:55.188Z,1034.33
2023-02-12T11:36:55.278Z,1034.28
2023-02-12T11:37:55.160Z,1034.28
2023-02-12T11:38:55.210Z,1034.29
2023-02-12T11:39:55.155Z,1034.28
2023-02-12T11:40:55.773Z,1034.32
2023-02-12T11:41:55.113Z,1034.27
2023-02-12T11:42:55.218Z,1034.28
2023-02-12T11:43:55.103Z,1034.28
2023-02-12T11:44:55.209Z,1034.27
2023-02-12T11:45:55.068Z,1034.22
2023-02-12T11:46:55.240Z,1034.23
2023-02-12T11:47:55.063Z,1034.20
2023-02-12T11:48:55.159Z,1034.21
2023-02-12T11:49:55.041Z,1034.23
2023-02-12T11:50:55.082Z,1034.25
2023-02-12T11:51:55.008Z,1034.20
2023-02-12T11:52:55.084Z,1034.26
2023-02-12T11:53:54.985Z,1034.23
2023-02-12T11:54:55.051Z,1034.17
2023-02-12T11:55:54.975Z,1034.19
2023-02-12T11:56:56.032Z,1034.15
2023-02-12T11:57:54.962Z,1034.19
2023-02-12T11:59:17.037Z,1034.18
2023-02-12T11:59:54.939Z,1034.27
2023-02-12T12:01:19.188Z,1034.52
2023-02-12T12:01:54.900Z,1034.04
2023-02-12T12:03:16.037Z,1033.97
2023-02-12T12:03:54.963Z,1033.99
2023-02-12T12:04:54.917Z,1033.99
2023-02-12T12:05:55.252Z,1034.00
2023-02-12T12:06:54.871Z,1034.07
2023-02-12T12:07:54.830Z,1034.01
2023-02-12T12:08:54.885Z,1034.04
2023-02-12T12:09:54.827Z,1034.00